CLT weather

Charlotte Douglas International Airport
Charlotte, North Carolina, United States

Public forecast

Using degrees Fahrenheit for public forecast. Weather courtesy of forecast.io.

METAR (pilot weather report)

Retrieved 2017/04/27 00:52 UTC (13 minutes ago):

KCLT 270052Z 18006KT 10SM FEW250 23/14 A2981

TAF (pilot weather forecast)

Forecast is more than 12 hours old.

Retrieved 2017/04/26 00:27 UTC (1 day ago):

TAF KCLT 262321Z 2700/2724 19005KT P6SM SCT250 FM271500 20008KT P6SM FEW060 SCT200 FM271700 19011KT P6SM BKN070 FM272100 20010G16KT P6SM BKN060 PROB30 2721/2724 4SM -TSRA OVC040CB